createdAt,value
2022-12-10T00:01:51.375Z,27.57
2022-12-10T00:06:52.856Z,24.67
2022-12-10T00:11:54.343Z,25.13
2022-12-10T00:16:55.826Z,25.77
2022-12-10T00:21:57.252Z,26.53
2022-12-10T00:26:58.712Z,23.47
2022-12-10T00:32:00.225Z,21.80
2022-12-10T00:37:01.639Z,23.40
2022-12-10T00:42:03.893Z,24.90
2022-12-10T00:47:05.481Z,23.93
2022-12-10T00:52:07.018Z,23.50
2022-12-10T00:57:08.511Z,23.00
2022-12-10T01:02:10.074Z,22.83
2022-12-10T01:07:11.977Z,21.07
2022-12-10T01:12:13.483Z,20.27
2022-12-10T01:17:14.899Z,18.77
2022-12-10T01:22:16.323Z,19.60
2022-12-10T01:27:17.803Z,18.77
2022-12-10T01:32:19.268Z,19.00
2022-12-10T01:37:20.736Z,16.90
2022-12-10T01:42:22.294Z,19.20
2022-12-10T01:47:24.348Z,19.90
2022-12-10T01:52:25.775Z,19.80
2022-12-10T01:57:28.799Z,20.50
2022-12-10T02:02:43.789Z,18.63
2022-12-10T02:08:25.980Z,20.10
2022-12-10T02:13:40.754Z,21.37
2022-12-10T02:18:54.328Z,20.27
2022-12-10T02:24:00.810Z,21.60
2022-12-10T02:29:26.255Z,21.83
2022-12-10T02:34:32.275Z,22.63
2022-12-10T02:39:39.853Z,23.43
2022-12-10T02:44:44.015Z,24.10
2022-12-10T02:49:49.317Z,23.05
2022-12-10T02:54:51.627Z,24.03
2022-12-10T03:00:19.350Z,27.27
2022-12-10T03:05:32.747Z,25.23
2022-12-10T03:10:54.234Z,25.30
2022-12-10T03:15:57.017Z,24.70
2022-12-10T03:21:04.716Z,26.40
2022-12-10T03:26:06.786Z,26.33
2022-12-10T03:31:12.076Z,25.27
2022-12-10T03:36:14.346Z,27.43
2022-12-10T03:41:15.903Z,25.67
2022-12-10T03:46:17.411Z,24.43
2022-12-10T03:51:19.563Z,22.77
2022-12-10T03:56:22.277Z,22.83
2022-12-10T04:01:23.750Z,22.33
2022-12-10T04:06:25.313Z,21.40
2022-12-10T04:11:27.305Z,20.97
2022-12-10T04:16:30.435Z,18.83
2022-12-10T04:21:52.454Z,19.13
2022-12-10T04:26:55.998Z,19.60
2022-12-10T04:31:58.439Z,19.73
2022-12-10T04:37:00.935Z,19.07
2022-12-10T04:42:02.772Z,19.27
2022-12-10T04:47:06.091Z,21.27
2022-12-10T04:52:09.088Z,23.47
2022-12-10T04:57:11.955Z,22.40
2022-12-10T05:02:13.461Z,21.20
2022-12-10T05:07:14.871Z,21.13
2022-12-10T05:12:16.319Z,21.60
2022-12-10T05:17:17.733Z,21.67
2022-12-10T05:22:37.552Z,21.97
2022-12-10T05:27:39.024Z,22.57
2022-12-10T05:32:40.552Z,23.40
2022-12-10T05:37:42.017Z,23.07
2022-12-10T05:42:43.427Z,23.33
2022-12-10T05:47:44.897Z,24.00
2022-12-10T05:52:46.344Z,22.23
2022-12-10T05:57:47.879Z,23.53
2022-12-10T06:02:49.342Z,23.73
2022-12-10T06:07:50.899Z,23.43
2022-12-10T06:12:52.444Z,24.33
2022-12-10T06:17:55.739Z,23.03
2022-12-10T06:22:57.291Z,23.47
2022-12-10T06:27:58.830Z,24.97
2022-12-10T06:33:00.711Z,24.30
2022-12-10T06:38:02.295Z,23.70
2022-12-10T06:43:03.787Z,23.83
2022-12-10T06:48:05.448Z,22.63
2022-12-10T06:53:06.938Z,23.00
2022-12-10T06:58:08.439Z,23.00
2022-12-10T07:03:09.862Z,21.37
2022-12-10T07:08:11.385Z,21.30
2022-12-10T07:13:12.889Z,20.50
2022-12-10T07:18:14.361Z,22.07
2022-12-10T07:23:15.778Z,19.47
2022-12-10T07:28:17.252Z,19.07
2022-12-10T07:33:18.675Z,18.67
2022-12-10T07:38:20.081Z,21.03
2022-12-10T07:43:21.479Z,19.57
2022-12-10T07:48:23.522Z,17.73
2022-12-10T07:53:24.996Z,19.60
2022-12-10T07:58:26.455Z,19.17
2022-12-10T08:03:27.854Z,17.67
2022-12-10T08:08:29.471Z,18.00
2022-12-10T08:13:31.431Z,19.77
2022-12-10T08:18:34.005Z,17.63
2022-12-10T08:23:35.833Z,17.73
2022-12-10T08:28:37.298Z,15.80
2022-12-10T08:33:39.760Z,14.43
2022-12-10T08:38:42.028Z,15.87
2022-12-10T08:43:44.110Z,14.70
2022-12-10T08:48:45.712Z,15.70
2022-12-10T08:53:47.710Z,15.00
2022-12-10T08:58:49.120Z,14.70
2022-12-10T09:03:51.420Z,12.27
2022-12-10T09:08:53.516Z,13.10
2022-12-10T09:13:55.308Z,13.20
2022-12-10T09:18:56.840Z,14.20
2022-12-10T09:23:59.158Z,13.53
2022-12-10T09:29:00.772Z,15.73
2022-12-10T09:34:03.420Z,16.10
2022-12-10T09:39:05.971Z,12.77
2022-12-10T09:44:32.344Z,13.70
2022-12-10T09:49:49.119Z,12.97
2022-12-10T09:54:57.844Z,13.63
2022-12-10T10:00:26.445Z,13.67
2022-12-10T10:05:35.507Z,11.83
2022-12-10T10:10:40.032Z,15.87
2022-12-10T10:15:43.666Z,15.45
2022-12-10T10:20:45.732Z,15.53
2022-12-10T10:25:47.385Z,14.43
2022-12-10T10:30:49.620Z,14.83
2022-12-10T10:35:57.946Z,16.97
2022-12-10T10:41:05.112Z,15.77
2022-12-10T10:46:15.930Z,17.07
2022-12-10T10:51:24.270Z,16.83
2022-12-10T10:56:30.174Z,16.20
2022-12-10T11:02:22.935Z,14.70
2022-12-10T11:07:34.543Z,16.50
2022-12-10T11:12:41.071Z,15.77
2022-12-10T11:17:48.994Z,15.17
2022-12-10T11:22:57.843Z,14.20
2022-12-10T11:28:26.144Z,14.00
2022-12-10T11:34:11.401Z,14.53
2022-12-10T11:39:46.021Z,13.60
2022-12-10T11:45:14.048Z,11.33
2022-12-10T11:50:27.624Z,11.90
2022-12-10T11:56:11.419Z,12.90
2022-12-10T12:01:40.154Z,9.70
2022-12-10T12:07:07.564Z,11.73
2022-12-10T12:12:24.830Z,11.57
2022-12-10T12:17:36.392Z,10.00
2022-12-10T12:22:43.792Z,11.70
2022-12-10T12:28:04.113Z,20.33
2022-12-10T12:33:13.010Z,10.57
2022-12-10T12:38:26.611Z,14.97
2022-12-10T12:43:43.839Z,11.20
2022-12-10T12:48:48.120Z,10.17
2022-12-10T12:53:49.720Z,10.00
2022-12-10T12:59:14.144Z,10.83
2022-12-10T13:09:26.567Z,9.40
2022-12-10T13:14:37.169Z,8.33
2022-12-10T13:19:42.040Z,9.13
2022-12-10T13:24:46.187Z,10.07
2022-12-10T13:29:56.856Z,18.83
2022-12-10T13:35:10.295Z,8.87
2022-12-10T13:40:11.894Z,9.57
2022-12-10T13:45:22.582Z,9.90
2022-12-10T13:50:46.831Z,8.47
2022-12-10T13:56:10.152Z,10.13
2022-12-10T14:01:14.726Z,9.43
2022-12-10T14:06:21.391Z,9.07
2022-12-10T14:11:31.211Z,9.40
2022-12-10T14:16:40.690Z,10.03
2022-12-10T14:21:44.361Z,8.68
2022-12-10T14:26:45.837Z,10.67
2022-12-10T14:31:51.351Z,8.43
2022-12-10T14:36:56.461Z,11.70
2022-12-10T14:42:01.854Z,11.37
2022-12-10T14:47:06.750Z,9.37
2022-12-10T14:52:23.083Z,9.43
2022-12-10T14:57:32.332Z,8.53
2022-12-10T15:02:43.436Z,9.23
2022-12-10T15:07:53.682Z,9.57
2022-12-10T15:12:56.060Z,9.73
2022-12-10T15:18:18.211Z,13.90
2022-12-10T15:23:21.531Z,10.13
2022-12-10T15:28:29.335Z,10.00
2022-12-10T15:33:37.328Z,10.23
2022-12-10T15:38:38.996Z,12.60
2022-12-10T15:43:52.508Z,11.30
2022-12-10T15:48:53.950Z,14.57
2022-12-10T15:53:55.451Z,11.23
2022-12-10T15:58:56.863Z,10.40
2022-12-10T16:03:58.437Z,11.73
2022-12-10T16:08:59.855Z,10.27
2022-12-10T16:14:01.851Z,11.77
2022-12-10T16:19:09.183Z,11.90
2022-12-10T16:24:10.676Z,13.40
2022-12-10T16:29:12.151Z,13.20
2022-12-10T16:34:13.848Z,14.50
2022-12-10T16:39:15.339Z,12.77
2022-12-10T16:44:16.764Z,13.53
2022-12-10T16:49:18.248Z,15.63
2022-12-10T16:54:19.676Z,14.20
2022-12-10T16:59:21.172Z,12.97
2022-12-10T17:04:22.592Z,12.60
2022-12-10T17:09:24.062Z,13.53
2022-12-10T17:14:32.592Z,13.57
2022-12-10T17:19:37.032Z,13.20
2022-12-10T17:24:38.547Z,13.68
2022-12-10T17:29:45.325Z,13.63
2022-12-10T17:34:46.899Z,11.30
2022-12-10T17:39:48.477Z,12.93
2022-12-10T17:44:50.061Z,10.23
2022-12-10T17:49:51.895Z,13.00
2022-12-10T17:54:53.409Z,12.87
2022-12-10T17:59:54.922Z,14.20
2022-12-10T18:04:56.428Z,11.03
2022-12-10T18:09:58.278Z,12.63
2022-12-10T18:14:59.864Z,9.97
2022-12-10T18:20:01.340Z,10.97
2022-12-10T18:25:03.353Z,9.90
2022-12-10T18:30:05.798Z,9.53
2022-12-10T18:35:07.988Z,10.53
2022-12-10T18:40:17.051Z,9.33
2022-12-10T18:45:19.565Z,8.83
2022-12-10T18:50:24.434Z,10.10
2022-12-10T18:55:26.147Z,10.20
2022-12-10T19:00:28.709Z,8.93
2022-12-10T19:05:30.494Z,9.00
2022-12-10T19:10:33.093Z,15.20
2022-12-10T19:15:39.602Z,14.37
2022-12-10T19:20:43.990Z,14.37
2022-12-10T19:25:45.566Z,11.00
2022-12-10T19:30:47.075Z,11.47
2022-12-10T19:35:48.471Z,10.83
2022-12-10T19:40:51.653Z,13.67
2022-12-10T19:45:53.249Z,13.63
2022-12-10T19:50:54.715Z,11.53
2022-12-10T19:55:56.187Z,12.67
2022-12-10T20:00:57.756Z,13.80
2022-12-10T20:05:59.228Z,14.60
2022-12-10T20:11:01.137Z,13.40
2022-12-10T20:16:02.966Z,13.63
2022-12-10T20:21:04.844Z,14.13
2022-12-10T20:26:26.159Z,14.57
2022-12-10T20:31:27.734Z,15.90
2022-12-10T20:36:29.278Z,17.17
2022-12-10T20:41:30.781Z,16.07
2022-12-10T20:46:36.718Z,15.23
2022-12-10T20:51:38.283Z,15.03
2022-12-10T20:56:39.801Z,16.50
2022-12-10T21:01:41.386Z,16.17
2022-12-10T21:06:44.716Z,16.27
2022-12-10T21:11:46.184Z,15.80
2022-12-10T21:16:47.686Z,14.73
2022-12-10T21:21:49.321Z,17.77
2022-12-10T21:26:50.767Z,16.93
2022-12-10T21:31:52.279Z,17.73
2022-12-10T21:36:54.500Z,29.70
2022-12-10T21:42:14.501Z,23.00
2022-12-10T21:47:16.020Z,20.87
2022-12-10T21:52:18.064Z,21.57
2022-12-10T21:57:19.579Z,20.27
2022-12-10T22:02:22.057Z,20.30
2022-12-10T22:07:24.591Z,23.37
2022-12-10T22:12:26.015Z,21.80
2022-12-10T22:17:27.890Z,22.33
2022-12-10T22:22:29.370Z,23.60
2022-12-10T22:27:33.078Z,23.37
2022-12-10T22:32:34.715Z,25.10
2022-12-10T22:37:36.452Z,26.43
2022-12-10T22:42:38.751Z,23.70
2022-12-10T22:47:40.235Z,23.77
2022-12-10T22:52:42.112Z,22.00
2022-12-10T22:57:43.878Z,20.77
2022-12-10T23:02:45.531Z,19.97
2022-12-10T23:07:47.311Z,22.43
2022-12-10T23:13:07.017Z,25.40
2022-12-10T23:18:10.323Z,23.90
2022-12-10T23:23:11.842Z,23.83
2022-12-10T23:28:13.819Z,22.93
2022-12-10T23:33:15.232Z,21.90
2022-12-10T23:38:16.749Z,21.37
2022-12-10T23:43:18.279Z,21.03
2022-12-10T23:48:19.791Z,20.23
2022-12-10T23:53:21.335Z,20.33
2022-12-10T23:58:23.751Z,21.00
